Time;durP1;ratioP1;P1;durP2;ratioP2;P2;SDS_P1;SDS_P2;PMS_P1;PMS_P2;Temp;Humidity;BMP_temperature;BMP_pressure;BME280_temperature;BME280_humidity;BME280_pressure;Samples;Min_cycle;Max_cycle;Signal;HPM_P1;HPM_P2
2024/01/21 00:00:13;;;;;;;28.52;15.32;;;-3.70;1.00;;;;;;7382083;19;20456;-69
2024/01/21 00:02:46;;;;;;;27.20;13.65;;;-3.70;1.00;;;;;;7380382;19;20043;-70
2024/01/21 00:05:16;;;;;;;25.20;14.23;;;-3.70;1.00;;;;;;7380710;19;20014;-69
2024/01/21 00:07:46;;;;;;;30.27;14.93;;;-3.80;1.00;;;;;;7382249;19;20006;-68
2024/01/21 00:10:17;;;;;;;25.13;14.65;;;-3.80;1.00;;;;;;7378873;19;20479;-70
2024/01/21 00:12:47;;;;;;;27.10;14.63;;;-3.90;1.00;;;;;;7381263;19;20021;-70
2024/01/21 00:15:17;;;;;;;27.60;14.27;;;-3.80;1.00;;;;;;7380485;19;20017;-69
2024/01/21 00:17:50;;;;;;;29.30;15.40;;;-3.80;1.00;;;;;;7381588;19;20015;-69
2024/01/21 00:20:20;;;;;;;29.08;14.82;;;-3.90;1.00;;;;;;7381309;19;20113;-69
2024/01/21 00:22:50;;;;;;;27.33;14.23;;;-3.90;1.00;;;;;;7381282;19;20003;-69
2024/01/21 00:25:20;;;;;;;26.45;15.23;;;-3.90;1.00;;;;;;7379916;19;20010;-69
2024/01/21 00:27:50;;;;;;;28.98;14.18;;;-4.00;1.00;;;;;;7381943;19;20746;-69
2024/01/21 00:30:20;;;;;;;25.10;14.60;;;-4.00;1.00;;;;;;7378890;19;20021;-70
2024/01/21 00:32:53;;;;;;;27.10;14.85;;;-4.00;1.00;;;;;;7380158;19;20014;-70
2024/01/21 00:35:23;;;;;;;26.08;14.43;;;-4.10;1.00;;;;;;7379870;19;20377;-69
2024/01/21 00:37:53;;;;;;;29.48;15.05;;;-4.00;1.00;;;;;;7377341;19;20103;-69
2024/01/21 00:40:23;;;;;;;26.83;14.40;;;-4.10;1.00;;;;;;7377894;19;20467;-69
2024/01/21 00:42:56;;;;;;;26.30;15.63;;;-4.10;1.00;;;;;;7379497;19;20002;-68
2024/01/21 00:45:26;;;;;;;36.45;16.98;;;-4.10;1.00;;;;;;7378943;19;20011;-68
2024/01/21 00:47:58;;;;;;;26.83;15.82;;;-4.10;1.00;;;;;;7377394;19;20041;-68
2024/01/21 00:50:29;;;;;;;28.35;14.65;;;-4.10;1.00;;;;;;7378146;19;20011;-70
2024/01/21 00:52:59;;;;;;;26.85;16.10;;;-4.00;1.00;;;;;;7378193;19;20355;-69
2024/01/21 00:55:29;;;;;;;31.70;16.95;;;-4.00;1.00;;;;;;7378257;19;20032;-68
2024/01/21 00:57:59;;;;;;;28.23;16.45;;;-4.00;1.00;;;;;;7379313;19;20026;-69
2024/01/21 01:00:29;;;;;;;29.83;16.38;;;-4.00;1.00;;;;;;7378066;19;20011;-69
2024/01/21 01:03:02;;;;;;;29.70;16.92;;;-4.00;1.00;;;;;;7377628;19;20023;-68
2024/01/21 01:05:32;;;;;;;31.15;16.67;;;-3.90;1.00;;;;;;7376947;19;20035;-68
2024/01/21 01:08:02;;;;;;;38.95;17.70;;;-4.00;1.00;;;;;;7378302;19;20019;-69
2024/01/21 01:10:32;;;;;;;32.75;18.48;;;-4.10;1.00;;;;;;7377619;19;20348;-69
2024/01/21 01:13:02;;;;;;;30.45;16.95;;;-4.10;1.00;;;;;;7376103;19;20011;-68
2024/01/21 01:15:32;;;;;;;33.85;17.88;;;-4.10;1.00;;;;;;7377040;19;20010;-69
2024/01/21 01:18:05;;;;;;;32.53;16.42;;;-4.10;1.00;;;;;;7377330;19;20019;-69
2024/01/21 01:20:35;;;;;;;31.60;16.73;;;-4.10;1.00;;;;;;7376366;19;20018;-69
2024/01/21 01:23:06;;;;;;;32.92;16.75;;;-4.00;1.00;;;;;;7377039;19;20017;-68
2024/01/21 01:25:36;;;;;;;26.48;16.50;;;-4.00;1.00;;;;;;7375934;19;20015;-67
2024/01/21 01:28:06;;;;;;;32.85;16.85;;;-4.00;1.00;;;;;;7377124;19;20006;-69
2024/01/21 01:30:36;;;;;;;30.02;15.75;;;-4.00;1.00;;;;;;7376183;19;20086;-69
2024/01/21 01:33:09;;;;;;;29.80;15.65;;;-4.00;1.00;;;;;;7377405;19;20014;-70
2024/01/21 01:35:40;;;;;;;31.80;15.82;;;-4.00;1.00;;;;;;7375953;19;20472;-69
2024/01/21 01:38:12;;;;;;;35.78;16.95;;;-4.00;1.00;;;;;;7377217;19;20003;-69
2024/01/21 01:40:42;;;;;;;31.63;16.55;;;-4.00;1.00;;;;;;7369450;19;20011;-69
2024/01/21 01:43:12;;;;;;;28.92;15.32;;;-4.00;1.00;;;;;;7376530;19;20021;-69
2024/01/21 01:45:42;;;;;;;32.45;16.27;;;-4.10;1.00;;;;;;7374574;19;20645;-68
2024/01/21 01:48:15;;;;;;;29.13;15.93;;;-4.00;1.00;;;;;;7375495;19;20027;-69
2024/01/21 01:50:45;;;;;;;30.58;15.70;;;-4.00;1.00;;;;;;7381478;19;20815;-69
2024/01/21 01:53:15;;;;;;;31.48;15.40;;;-4.10;1.00;;;;;;7382464;19;20029;-68
2024/01/21 01:55:46;;;;;;;30.55;15.75;;;-4.00;1.00;;;;;;7385158;19;20010;-69
2024/01/21 01:58:18;;;;;;;32.72;16.38;;;-4.10;1.00;;;;;;7383462;19;20010;-69
2024/01/21 02:00:49;;;;;;;33.92;17.17;;;-4.00;1.00;;;;;;7381604;19;20345;-69
2024/01/21 02:03:23;;;;;;;29.50;16.63;;;-3.90;1.00;;;;;;7382310;19;20074;-68
2024/01/21 02:05:53;;;;;;;28.70;15.57;;;-3.80;1.00;;;;;;7381497;19;20023;-68
2024/01/21 02:08:23;;;;;;;32.53;16.52;;;-3.80;1.00;;;;;;7382394;19;20227;-69
2024/01/21 02:10:53;;;;;;;38.17;17.60;;;-3.80;1.00;;;;;;7383135;19;20035;-69
2024/01/21 02:13:23;;;;;;;30.00;15.98;;;-3.80;1.00;;;;;;7383265;19;20030;-69
2024/01/21 02:15:53;;;;;;;35.55;17.35;;;-3.80;1.00;;;;;;7382833;19;20010;-69
2024/01/21 02:18:26;;;;;;;31.73;17.67;;;-3.80;1.00;;;;;;7383169;19;20021;-69
2024/01/21 02:20:56;;;;;;;30.55;16.27;;;-3.80;1.00;;;;;;7381694;19;20518;-69
2024/01/21 02:23:29;;;;;;;35.90;17.20;;;-3.80;1.00;;;;;;7382922;19;20029;-69
2024/01/21 02:25:59;;;;;;;47.92;16.95;;;-3.80;1.00;;;;;;7381900;19;20109;-68
2024/01/21 02:28:29;;;;;;;28.08;15.57;;;-3.80;1.00;;;;;;7383231;19;20011;-69
2024/01/21 02:30:59;;;;;;;35.28;16.38;;;-3.90;1.00;;;;;;7381164;19;20043;-70
2024/01/21 02:33:29;;;;;;;30.83;15.15;;;-3.90;1.00;;;;;;7380165;19;20020;-69
2024/01/21 02:35:59;;;;;;;27.27;15.00;;;-3.80;1.00;;;;;;7381278;19;20038;-69
2024/01/21 02:38:32;;;;;;;31.48;16.52;;;-3.90;1.00;;;;;;7380409;19;20010;-69
2024/01/21 02:41:02;;;;;;;31.55;16.67;;;-4.00;1.00;;;;;;7379514;19;20349;-68
2024/01/21 02:43:32;;;;;;;32.25;17.10;;;-4.10;1.00;;;;;;7380833;19;20026;-69
2024/01/21 02:46:02;;;;;;;27.35;14.60;;;-4.20;1.00;;;;;;7378866;19;20484;-69
2024/01/21 02:48:32;;;;;;;27.10;14.98;;;-4.20;1.00;;;;;;7377994;19;20383;-68
2024/01/21 02:51:02;;;;;;;29.15;13.48;;;-4.20;1.00;;;;;;7376695;19;20034;-68
2024/01/21 02:53:34;;;;;;;23.55;13.10;;;-4.30;1.00;;;;;;7379720;19;20383;-68
2024/01/21 02:56:04;;;;;;;25.55;13.32;;;-4.30;1.00;;;;;;7378983;19;20020;-68
2024/01/21 02:58:34;;;;;;;26.92;13.77;;;-4.40;1.00;;;;;;7379136;19;20027;-68
2024/01/21 03:01:04;;;;;;;24.58;13.05;;;-4.40;1.00;;;;;;7376234;19;20006;-69
2024/01/21 03:03:37;;;;;;;24.85;12.80;;;-4.30;1.00;;;;;;7378279;19;20010;-68
2024/01/21 03:06:07;;;;;;;24.85;12.05;;;-4.40;1.00;;;;;;7379676;19;20400;-68
2024/01/21 03:08:40;;;;;;;27.83;14.25;;;-4.40;1.00;;;;;;7380042;19;20010;-69
2024/01/21 03:11:10;;;;;;;25.05;13.10;;;-4.50;1.00;;;;;;7380339;19;20010;-69
2024/01/21 03:13:40;;;;;;;22.95;11.82;;;-4.60;1.00;;;;;;7380147;19;20085;-69
2024/01/21 03:16:10;;;;;;;20.73;12.27;;;-4.50;1.00;;;;;;7377787;19;20010;-68
2024/01/21 03:18:41;;;;;;;22.73;11.93;;;-4.50;1.00;;;;;;7378804;19;20419;-70
2024/01/21 03:21:11;;;;;;;23.67;11.70;;;-4.50;1.00;;;;;;7379760;19;20464;-68
2024/01/21 03:23:44;;;;;;;23.17;12.52;;;-4.50;1.00;;;;;;7379689;19;20395;-68
2024/01/21 03:26:14;;;;;;;22.60;12.07;;;-4.50;1.00;;;;;;7378660;19;20078;-68
2024/01/21 03:28:44;;;;;;;25.40;13.45;;;-4.50;1.00;;;;;;7378887;19;20002;-69
2024/01/21 03:31:14;;;;;;;26.08;11.98;;;-4.40;1.00;;;;;;7379311;19;20009;-69
2024/01/21 03:33:44;;;;;;;19.38;11.38;;;-4.30;1.00;;;;;;7379131;19;20010;-69
2024/01/21 03:36:14;;;;;;;20.92;11.00;;;-4.30;1.00;;;;;;7206041;19;3409969;-69
2024/01/21 03:38:50;;;;;;;19.25;10.80;;;-4.30;1.00;;;;;;7381399;19;20043;-68
2024/01/21 03:41:20;;;;;;;21.65;11.00;;;-4.30;1.00;;;;;;7379476;19;20483;-70
2024/01/21 03:43:50;;;;;;;21.23;11.63;;;-4.40;1.00;;;;;;7378734;19;20445;-68
2024/01/21 03:46:21;;;;;;;24.70;12.85;;;-4.30;1.00;;;;;;7379676;19;20381;-69
2024/01/21 03:48:51;;;;;;;26.60;12.95;;;-4.40;1.00;;;;;;7379226;19;20011;-68
2024/01/21 03:51:21;;;;;;;22.80;12.85;;;-4.30;1.00;;;;;;7378264;19;20017;-69
2024/01/21 03:53:54;;;;;;;22.50;12.63;;;-4.30;1.00;;;;;;7377960;19;20013;-69
2024/01/21 03:56:24;;;;;;;21.30;11.57;;;-4.20;1.00;;;;;;7379190;19;20007;-69
2024/01/21 03:58:54;;;;;;;22.55;12.13;;;-4.30;1.00;;;;;;7379566;19;20010;-69
2024/01/21 04:01:24;;;;;;;24.13;13.45;;;-4.20;1.00;;;;;;7378057;19;20471;-69
2024/01/21 04:03:54;;;;;;;23.33;12.05;;;-4.20;1.00;;;;;;7378506;19;20493;-69
2024/01/21 04:06:25;;;;;;;22.13;12.30;;;-4.20;1.00;;;;;;7378590;19;20010;-68
2024/01/21 04:08:57;;;;;;;24.80;12.40;;;-4.20;1.00;;;;;;7378029;19;20085;-68
2024/01/21 04:11:27;;;;;;;23.00;13.18;;;-4.10;1.00;;;;;;7375454;19;20025;-68
2024/01/21 04:13:57;;;;;;;20.52;12.18;;;-4.20;1.00;;;;;;7379460;19;20014;-68
2024/01/21 04:16:27;;;;;;;23.55;12.60;;;-4.10;1.00;;;;;;7380362;19;20169;-68
2024/01/21 04:18:57;;;;;;;24.27;12.95;;;-4.20;1.00;;;;;;7378725;19;20010;-69
2024/01/21 04:21:27;;;;;;;22.10;12.55;;;-4.20;1.00;;;;;;7376434;19;20014;-68
2024/01/21 04:24:00;;;;;;;29.65;12.93;;;-4.20;1.00;;;;;;7377670;19;20716;-68
2024/01/21 04:26:30;;;;;;;25.05;12.93;;;-4.20;1.00;;;;;;7378314;19;20025;-69
2024/01/21 04:29:00;;;;;;;21.15;12.68;;;-4.10;1.00;;;;;;7378720;19;20018;-69
2024/01/21 04:31:30;;;;;;;22.48;11.98;;;-4.20;1.00;;;;;;7377998;19;20014;-69
2024/01/21 04:34:00;;;;;;;22.48;11.82;;;-4.20;1.00;;;;;;7378157;19;20014;-69
2024/01/21 04:36:30;;;;;;;21.40;11.05;;;-4.20;1.00;;;;;;7378252;19;20043;-69
2024/01/21 04:39:03;;;;;;;21.23;11.23;;;-4.10;1.00;;;;;;7377976;19;20018;-69
2024/01/21 04:41:33;;;;;;;19.83;12.27;;;-4.10;1.00;;;;;;7377084;19;20017;-69
2024/01/21 04:44:03;;;;;;;23.50;11.90;;;-4.20;1.00;;;;;;7377705;19;20028;-68
2024/01/21 04:46:33;;;;;;;22.88;11.75;;;-4.10;1.00;;;;;;7376476;19;20017;-68
2024/01/21 04:49:03;;;;;;;23.00;12.57;;;-4.10;1.00;;;;;;7377072;19;20010;-68
2024/01/21 04:51:33;;;;;;;24.55;12.77;;;-4.10;1.00;;;;;;7376815;19;20014;-69
2024/01/21 04:54:06;;;;;;;26.95;13.32;;;-4.10;1.00;;;;;;7378889;19;20034;-69
2024/01/21 04:56:36;;;;;;;26.70;12.88;;;-4.00;1.00;;;;;;7378052;19;21017;-69
2024/01/21 04:59:06;;;;;;;25.20;13.85;;;-4.10;1.00;;;;;;7377388;19;20010;-69
2024/01/21 05:01:36;;;;;;;23.60;12.30;;;-4.00;1.00;;;;;;7377299;19;20855;-69
2024/01/21 05:04:06;;;;;;;23.35;12.10;;;-4.00;1.00;;;;;;7377785;19;20013;-68
2024/01/21 05:06:36;;;;;;;20.73;11.48;;;-4.00;1.00;;;;;;7378371;19;20011;-68
2024/01/21 05:09:10;;;;;;;23.50;13.07;;;-4.00;1.00;;;;;;7377653;19;20006;-69
2024/01/21 05:11:41;;;;;;;;;;;-4.00;1.00;;;;;;7376495;19;20884;-69
2024/01/21 05:14:11;;;;;;;21.40;12.43;;;-3.90;1.00;;;;;;7378198;19;20022;-68
2024/01/21 05:16:41;;;;;;;23.13;12.48;;;-3.80;1.00;;;;;;7377697;19;20086;-69
2024/01/21 05:19:11;;;;;;;20.02;12.50;;;-3.80;1.00;;;;;;7378578;19;20021;-69
2024/01/21 05:21:41;;;;;;;25.17;13.18;;;-3.80;1.00;;;;;;7377871;19;20006;-68
2024/01/21 05:24:14;;;;;;;22.85;12.15;;;-3.90;1.00;;;;;;7377392;19;20011;-69
2024/01/21 05:26:47;;;;;;;20.13;10.52;;;-3.90;1.00;;;;;;7376197;19;20039;-70
2024/01/21 05:29:18;;;;;;;18.25;9.65;;;-3.80;1.00;;;;;;7377746;19;20027;-69
2024/01/21 05:31:48;;;;;;;16.50;10.63;;;-3.90;1.00;;;;;;7377837;19;20025;-69
2024/01/21 05:34:18;;;;;;;18.80;10.95;;;-3.90;1.00;;;;;;7377799;19;20131;-69
2024/01/21 05:36:48;;;;;;;20.63;11.00;;;-3.90;1.00;;;;;;7377311;19;20510;-68
2024/01/21 05:39:21;;;;;;;21.10;10.10;;;-3.90;1.00;;;;;;7377916;19;20013;-70
2024/01/21 05:42:12;;;;;;;18.30;10.18;;;-3.90;1.00;;;;;;7377204;19;20355;-70
2024/01/21 05:44:42;;;;;;;20.48;12.00;;;-3.90;1.00;;;;;;7069339;19;2003924;-68
2024/01/21 05:47:12;;;;;;;16.80;9.75;;;-3.80;1.00;;;;;;7377574;19;20013;-68
2024/01/21 05:49:43;;;;;;;16.45;9.75;;;-3.80;1.00;;;;;;7378091;19;20485;-69
2024/01/21 05:52:13;;;;;;;18.83;9.88;;;-3.80;1.00;;;;;;7377726;19;20067;-69
2024/01/21 05:54:46;;;;;;;24.33;11.48;;;-3.80;1.00;;;;;;7377876;19;20497;-69
2024/01/21 05:57:16;;;;;;;19.75;10.52;;;-3.90;1.00;;;;;;7376181;19;20018;-69
2024/01/21 05:59:46;;;;;;;18.75;11.95;;;-3.80;1.00;;;;;;7377206;19;20026;-69
2024/01/21 06:02:18;;;;;;;18.35;10.70;;;-3.80;1.00;;;;;;7377643;19;20030;-68
2024/01/21 06:04:50;;;;;;;23.92;11.15;;;-3.80;1.00;;;;;;7377069;19;20026;-69
2024/01/21 06:07:22;;;;;;;21.23;10.38;;;-3.90;1.00;;;;;;7377619;19;20015;-69
2024/01/21 06:09:54;;;;;;;19.27;10.38;;;-4.00;1.00;;;;;;7375887;19;20018;-69
2024/01/21 06:12:24;;;;;;;19.38;10.50;;;-3.90;1.00;;;;;;7377758;19;20006;-68
2024/01/21 06:14:54;;;;;;;21.42;11.05;;;-3.90;1.00;;;;;;7377787;19;20010;-69
2024/01/21 06:17:24;;;;;;;22.35;12.00;;;-3.90;1.00;;;;;;7377127;19;20003;-69
2024/01/21 06:19:54;;;;;;;22.17;11.60;;;-4.00;1.00;;;;;;7374959;19;20078;-70
2024/01/21 06:22:24;;;;;;;20.75;10.00;;;-4.00;1.00;;;;;;7378236;19;20425;-69
2024/01/21 06:24:57;;;;;;;20.10;10.30;;;-4.00;1.00;;;;;;7377274;19;20007;-70
2024/01/21 06:27:27;;;;;;;17.63;10.60;;;-4.00;1.00;;;;;;7375821;19;20017;-69
2024/01/21 06:29:57;;;;;;;17.05;8.85;;;-4.00;1.00;;;;;;7375063;19;20011;-68
2024/01/21 06:32:27;;;;;;;19.77;10.40;;;-3.90;1.00;;;;;;7377289;19;20052;-70
2024/01/21 06:34:57;;;;;;;14.45;9.20;;;-3.90;1.00;;;;;;7380421;19;20038;-70
2024/01/21 06:37:27;;;;;;;16.70;9.23;;;-3.80;1.00;;;;;;7383334;19;20011;-69
2024/01/21 06:40:00;;;;;;;17.23;9.02;;;-3.70;1.00;;;;;;7381757;19;20051;-69
2024/01/21 06:42:35;;;;;;;16.75;9.48;;;-3.80;1.00;;;;;;7383000;19;20855;-69
2024/01/21 06:45:06;;;;;;;17.30;9.25;;;-3.80;1.00;;;;;;7382115;19;20038;-69
2024/01/21 06:47:37;;;;;;;14.68;9.02;;;-3.90;1.00;;;;;;7383848;19;20714;-69
2024/01/21 06:50:09;;;;;;;16.10;10.18;;;-3.90;1.00;;;;;;7381231;19;20035;-69
2024/01/21 06:52:39;;;;;;;22.38;10.52;;;-3.80;1.00;;;;;;7383478;19;20010;-69
2024/01/21 06:55:12;;;;;;;19.50;11.38;;;-3.90;1.00;;;;;;7382777;19;20019;-68
2024/01/21 06:57:42;;;;;;;17.58;10.13;;;-3.80;1.00;;;;;;7383420;19;20011;-69
2024/01/21 07:00:14;;;;;;;19.40;10.93;;;-3.90;1.00;;;;;;7382219;19;20006;-69
2024/01/21 07:02:44;;;;;;;20.23;11.00;;;-3.90;1.00;;;;;;7379746;19;20014;-68
2024/01/21 07:05:15;;;;;;;24.23;13.13;;;-3.90;1.00;;;;;;7382376;19;20025;-69
2024/01/21 07:07:45;;;;;;;21.48;11.60;;;-4.00;1.00;;;;;;7383259;19;20010;-68
2024/01/21 07:10:21;;;;;;;20.83;10.90;;;-4.00;1.00;;;;;;7380447;19;20011;-69
2024/01/21 07:12:51;;;;;;;21.77;11.27;;;-4.10;1.00;;;;;;7382159;19;19998;-68
2024/01/21 07:15:21;;;;;;;19.08;11.30;;;-4.10;1.00;;;;;;7381156;19;20115;-68
2024/01/21 07:17:51;;;;;;;16.95;10.40;;;-4.00;1.00;;;;;;7381125;19;20006;-69
2024/01/21 07:20:21;;;;;;;19.88;11.32;;;-4.00;1.00;;;;;;7381261;19;20030;-69
2024/01/21 07:22:52;;;;;;;17.42;10.30;;;-4.00;1.00;;;;;;7382396;19;20018;-68
2024/01/21 07:25:24;;;;;;;19.92;10.80;;;-4.00;1.00;;;;;;7379702;19;20018;-69
2024/01/21 07:27:54;;;;;;;22.70;11.77;;;-3.80;1.00;;;;;;7380250;19;20014;-67
2024/01/21 07:30:25;;;;;;;21.58;11.73;;;-3.80;1.00;;;;;;7380149;19;20082;-68
2024/01/21 07:32:55;;;;;;;19.05;10.45;;;-3.70;1.00;;;;;;7380117;19;20053;-69
2024/01/21 07:35:27;;;;;;;18.10;10.60;;;-3.80;1.00;;;;;;7378901;19;20010;-69
2024/01/21 07:37:58;;;;;;;19.90;11.25;;;-3.70;1.00;;;;;;7379524;19;20039;-69
2024/01/21 07:40:31;;;;;;;17.98;10.70;;;-3.60;1.00;;;;;;7378596;19;20022;-69
2024/01/21 07:43:01;;;;;;;20.35;11.20;;;-3.60;1.00;;;;;;7379814;19;20389;-69
2024/01/21 07:45:31;;;;;;;18.67;11.40;;;-3.40;1.00;;;;;;7378710;19;20015;-70
2024/01/21 07:48:01;;;;;;;17.60;10.00;;;-3.50;1.00;;;;;;7377648;19;20050;-68
2024/01/21 07:50:31;;;;;;;18.35;10.23;;;-3.40;1.00;;;;;;7377779;19;20017;-70
2024/01/21 07:53:02;;;;;;;19.08;11.00;;;-3.30;1.00;;;;;;7379375;19;20006;-68
2024/01/21 07:55:34;;;;;;;19.63;10.13;;;-3.10;1.00;;;;;;7378858;19;20036;-69
2024/01/21 07:58:05;;;;;;;17.90;11.27;;;-2.90;1.00;;;;;;7379501;19;20414;-68
2024/01/21 08:00:35;;;;;;;18.08;10.48;;;-2.80;1.00;;;;;;7377226;19;20017;-68
2024/01/21 08:03:05;;;;;;;17.95;10.38;;;-2.80;1.00;;;;;;7379536;19;20018;-68
2024/01/21 08:05:35;;;;;;;16.27;10.00;;;-2.70;1.00;;;;;;7378572;19;20034;-70
2024/01/21 08:08:06;;;;;;;17.33;10.60;;;-2.60;1.00;;;;;;7379698;19;20039;-69
2024/01/21 08:10:40;;;;;;;16.42;10.30;;;-2.60;1.00;;;;;;7378778;19;20015;-69
2024/01/21 08:13:10;;;;;;;17.42;10.40;;;-2.50;1.00;;;;;;7379597;19;20691;-68
2024/01/21 08:15:40;;;;;;;16.05;9.63;;;-2.50;1.00;;;;;;7378961;19;20010;-70
2024/01/21 08:18:10;;;;;;;19.40;10.80;;;-2.40;1.00;;;;;;7380669;19;20473;-68
2024/01/21 08:20:40;;;;;;;17.08;10.30;;;-2.30;1.00;;;;;;7378168;19;20463;-69
2024/01/21 08:23:09;;;;;;;19.17;10.43;;;-2.30;1.00;;;;;;7379671;19;20531;-69
2024/01/21 08:25:42;;;;;;;17.92;11.15;;;-2.30;1.00;;;;;;7378778;19;20010;-68
2024/01/21 08:28:12;;;;;;;23.10;11.75;;;-2.20;1.00;;;;;;7380710;19;20009;-68
2024/01/21 08:30:42;;;;;;;16.83;10.73;;;-2.10;1.00;;;;;;7379333;19;20647;-68
2024/01/21 08:33:12;;;;;;;19.80;11.57;;;-2.10;1.00;;;;;;7381368;19;20007;-69
2024/01/21 08:35:43;;;;;;;20.40;11.70;;;-2.00;1.00;;;;;;7379579;19;20081;-69
2024/01/21 08:38:14;;;;;;;17.73;11.32;;;-2.10;1.00;;;;;;7380702;19;20018;-69
2024/01/21 08:40:46;;;;;;;18.65;11.52;;;-2.10;1.00;;;;;;7379488;19;20010;-69
2024/01/21 08:43:16;;;;;;;25.25;12.27;;;-2.00;1.00;;;;;;7378564;19;20050;-69
2024/01/21 08:45:46;;;;;;;19.23;11.98;;;-1.90;1.00;;;;;;7378015;19;20022;-70
2024/01/21 08:48:16;;;;;;;20.27;12.82;;;-1.90;1.00;;;;;;7378324;19;20086;-69
2024/01/21 08:50:47;;;;;;;18.60;11.40;;;-1.70;1.00;;;;;;7377098;19;20379;-68
2024/01/21 08:53:17;;;;;;;18.85;11.77;;;-1.60;1.00;;;;;;7381233;19;20399;-68
2024/01/21 08:55:50;;;;;;;19.55;11.15;;;-1.70;1.00;;;;;;7380655;19;20010;-68
2024/01/21 08:58:20;;;;;;;17.38;11.00;;;-1.60;1.00;;;;;;7377585;19;20010;-69
2024/01/21 09:00:51;;;;;;;17.15;10.68;;;-1.50;1.00;;;;;;7376221;19;20372;-69
2024/01/21 09:03:21;;;;;;;17.92;10.52;;;-1.50;1.00;;;;;;7377129;19;20066;-68
2024/01/21 09:05:51;;;;;;;14.70;9.45;;;-1.40;1.00;;;;;;7377077;19;20013;-68
2024/01/21 09:08:22;;;;;;;17.13;10.18;;;-1.40;1.00;;;;;;7378272;19;20017;-69
2024/01/21 09:10:54;;;;;;;18.23;11.75;;;-1.30;1.00;;;;;;7375232;19;20510;-69
2024/01/21 09:13:24;;;;;;;14.73;10.73;;;-1.30;1.00;;;;;;7377759;19;20014;-69
2024/01/21 09:15:54;;;;;;;18.30;11.77;;;-1.40;1.00;;;;;;7376056;19;20017;-68
2024/01/21 09:18:24;;;;;;;16.30;10.35;;;-1.30;1.00;;;;;;7378423;19;20024;-70
2024/01/21 09:20:55;;;;;;;19.25;11.55;;;-1.30;1.00;;;;;;7376728;19;20006;-69
2024/01/21 09:23:25;;;;;;;17.05;11.02;;;-1.30;1.00;;;;;;7376001;19;20361;-68
2024/01/21 09:25:57;;;;;;;16.42;11.60;;;-1.20;1.00;;;;;;7377958;19;20018;-68
2024/01/21 09:28:27;;;;;;;18.95;12.23;;;-1.10;1.00;;;;;;7378209;19;20014;-69
2024/01/21 09:30:57;;;;;;;16.70;11.68;;;-1.10;1.00;;;;;;7377241;19;20022;-69
2024/01/21 09:33:27;;;;;;;17.05;11.00;;;-1.10;1.00;;;;;;7378797;19;20010;-69
2024/01/21 09:35:58;;;;;;;17.63;11.70;;;-1.10;1.00;;;;;;7377011;19;20040;-69
2024/01/21 09:38:28;;;;;;;18.77;12.27;;;-1.00;1.00;;;;;;7378532;19;20101;-68
2024/01/21 09:41:09;;;;;;;16.50;10.90;;;-0.90;1.00;;;;;;7377454;19;20017;-69
2024/01/21 09:43:43;;;;;;;15.50;11.27;;;-0.80;1.00;;;;;;7376305;19;20074;-68
2024/01/21 09:46:14;;;;;;;16.25;11.77;;;-0.80;1.00;;;;;;7376615;19;20078;-69
2024/01/21 09:48:45;;;;;;;15.68;10.43;;;-0.80;1.00;;;;;;7376993;19;20017;-69
2024/01/21 09:51:17;;;;;;;17.65;10.85;;;-0.70;1.00;;;;;;7376607;19;20086;-68
2024/01/21 09:53:47;;;;;;;18.77;11.80;;;-0.60;1.00;;;;;;7376685;19;20010;-68
2024/01/21 09:56:20;;;;;;;16.25;11.45;;;-0.50;1.00;;;;;;7375431;19;20033;-69
2024/01/21 09:58:53;;;;;;;17.52;10.98;;;-0.30;1.00;;;;;;7374994;19;20074;-68
2024/01/21 10:01:23;;;;;;;19.23;12.23;;;-0.10;1.00;;;;;;7375359;19;20018;-67
2024/01/21 10:03:55;;;;;;;20.63;12.48;;;-0.10;1.00;;;;;;7377097;19;20026;-69
2024/01/21 10:06:26;;;;;;;20.67;11.55;;;0.00;1.00;;;;;;7375811;19;20105;-68
2024/01/21 10:08:56;;;;;;;19.92;11.68;;;0.00;1.00;;;;;;7375778;19;20010;-67
2024/01/21 10:11:29;;;;;;;15.68;11.38;;;0.10;1.00;;;;;;7379334;19;20074;-69
2024/01/21 10:13:59;;;;;;;18.08;11.00;;;0.10;1.00;;;;;;7382818;19;20069;-69
2024/01/21 10:16:30;;;;;;;17.48;11.88;;;0.30;1.00;;;;;;7382789;19;20002;-70
2024/01/21 10:19:02;;;;;;;16.98;11.02;;;0.30;1.00;;;;;;7382445;19;20006;-69
2024/01/21 10:21:32;;;;;;;16.40;11.40;;;0.50;1.00;;;;;;7381011;19;20023;-69
2024/01/21 10:24:03;;;;;;;17.95;12.45;;;0.40;1.00;;;;;;7382458;19;20015;-69
2024/01/21 10:26:36;;;;;;;17.80;11.70;;;0.50;1.00;;;;;;7382624;19;20032;-69
2024/01/21 10:29:07;;;;;;;16.23;11.40;;;0.80;1.00;;;;;;7383163;19;20014;-68
2024/01/21 10:31:37;;;;;;;16.85;11.85;;;0.90;1.00;;;;;;7381400;19;20010;-68
2024/01/21 10:34:07;;;;;;;19.20;12.32;;;0.90;1.00;;;;;;7382575;19;20467;-67
2024/01/21 10:36:37;;;;;;;16.33;10.80;;;0.90;1.00;;;;;;7381101;19;20014;-68
2024/01/21 10:39:09;;;;;;;16.65;11.27;;;1.10;1.00;;;;;;7382086;19;20017;-68
2024/01/21 10:41:43;;;;;;;17.20;10.80;;;1.10;1.00;;;;;;7381675;19;20025;-69
2024/01/21 10:44:15;;;;;;;16.83;10.98;;;1.10;1.00;;;;;;7381454;19;20006;-70
2024/01/21 10:46:46;;;;;;;17.63;11.32;;;1.20;1.00;;;;;;7381585;19;20028;-69
2024/01/21 10:49:17;;;;;;;23.98;11.60;;;1.20;1.00;;;;;;7381788;19;20007;-69
2024/01/21 10:51:48;;;;;;;18.08;11.73;;;1.30;1.00;;;;;;7381379;19;20002;-69
2024/01/21 10:54:18;;;;;;;19.20;12.27;;;1.30;1.00;;;;;;7383089;19;20039;-69
2024/01/21 10:56:51;;;;;;;17.92;11.25;;;1.40;1.00;;;;;;7382123;19;20392;-70
2024/01/21 10:59:22;;;;;;;20.65;11.82;;;1.50;1.00;;;;;;7379204;19;20593;-69
2024/01/21 11:01:53;;;;;;;18.33;11.52;;;1.60;1.00;;;;;;7381747;19;20010;-70
2024/01/21 11:04:24;;;;;;;18.27;12.07;;;1.70;1.00;;;;;;7380568;19;20010;-70
2024/01/21 11:06:56;;;;;;;16.42;11.85;;;1.50;1.00;;;;;;7381094;19;20118;-70
2024/01/21 11:09:29;;;;;;;23.38;11.88;;;1.70;1.00;;;;;;7381727;19;20046;-69
2024/01/21 11:12:02;;;;;;;23.55;11.70;;;1.60;1.00;;;;;;7381806;19;20015;-69
2024/01/21 11:14:34;;;;;;;17.67;10.57;;;1.50;1.00;;;;;;7386469;19;20022;-69
2024/01/21 11:17:06;;;;;;;16.70;11.52;;;1.70;1.00;;;;;;7381661;19;20015;-71
2024/01/21 11:19:46;;;;;;;19.05;12.10;;;1.80;1.00;;;;;;7382562;19;20387;-71
2024/01/21 11:22:17;;;;;;;17.40;11.85;;;1.70;1.00;;;;;;7379333;19;20035;-69
2024/01/21 11:24:48;;;;;;;15.63;11.93;;;1.70;1.00;;;;;;7381643;19;20057;-69
2024/01/21 11:27:22;;;;;;;17.23;12.20;;;1.80;1.00;;;;;;7380617;19;20506;-69
2024/01/21 11:29:55;;;;;;;20.58;13.32;;;1.80;1.00;;;;;;7381147;19;20018;-70
2024/01/21 11:32:28;;;;;;;23.15;14.73;;;1.70;1.00;;;;;;7381472;19;20010;-70
2024/01/21 11:35:09;;;;;;;20.20;13.77;;;1.50;1.00;;;;;;7379811;19;20006;-69
2024/01/21 11:37:42;;;;;;;26.40;17.45;;;1.20;1.00;;;;;;7381149;19;20023;-70
2024/01/21 11:40:14;;;;;;;26.48;16.77;;;1.20;1.00;;;;;;7378528;19;20049;-71
2024/01/21 11:42:50;;;;;;;25.13;17.88;;;1.20;1.00;;;;;;7380448;19;20531;-70
2024/01/21 11:45:21;;;;;;;22.83;16.23;;;1.30;1.00;;;;;;7378784;19;20022;-68
2024/01/21 11:47:51;;;;;;;25.35;17.08;;;1.40;1.00;;;;;;7380086;19;20034;-70
2024/01/21 11:50:22;;;;;;;31.73;16.35;;;1.40;1.00;;;;;;7377550;19;20017;-69
2024/01/21 11:52:52;;;;;;;28.35;17.00;;;1.30;1.00;;;;;;7379459;19;20006;-71
2024/01/21 11:55:23;;;;;;;24.98;15.60;;;1.40;1.00;;;;;;7379362;19;20011;-69
2024/01/21 11:57:56;;;;;;;32.40;15.98;;;1.60;1.00;;;;;;7379181;19;20007;-70
2024/01/21 12:00:26;;;;;;;27.63;16.10;;;1.80;1.00;;;;;;7378594;19;20010;-70
2024/01/21 12:02:56;;;;;;;24.50;16.33;;;1.90;1.00;;;;;;7379016;19;21375;-70
2024/01/21 12:05:26;;;;;;;23.08;14.88;;;2.20;1.00;;;;;;7378606;19;20040;-70
2024/01/21 12:07:58;;;;;;;23.67;14.77;;;2.30;1.00;;;;;;7378934;19;20016;-70
2024/01/21 12:10:28;;;;;;;25.83;14.73;;;2.60;1.00;;;;;;7378573;19;20018;-69
2024/01/21 12:13:00;;;;;;;24.17;14.98;;;2.60;1.00;;;;;;7378535;19;20011;-70
2024/01/21 12:15:36;;;;;;;43.83;15.85;;;2.60;1.00;;;;;;7377310;19;20038;-70
2024/01/21 12:18:08;;;;;;;29.55;15.55;;;2.90;1.00;;;;;;7378931;19;21210;-69
2024/01/21 12:20:38;;;;;;;30.92;14.85;;;3.10;1.00;;;;;;7376901;19;20070;-69
2024/01/21 12:23:20;;;;;;;23.27;13.85;;;3.30;1.00;;;;;;7378612;19;20010;-69
2024/01/21 12:25:50;;;;;;;23.08;14.90;;;3.40;1.00;;;;;;7377048;19;20010;-69
2024/01/21 12:28:26;;;;;;;19.77;13.38;;;3.60;1.00;;;;;;7380365;19;20459;-69
2024/01/21 12:30:56;;;;;;;24.23;12.73;;;4.10;1.00;;;;;;7378081;19;20035;-70
2024/01/21 12:33:27;;;;;;;29.77;12.90;;;4.30;1.00;;;;;;7377727;19;20088;-69
2024/01/21 12:35:58;;;;;;;20.25;11.40;;;4.30;1.00;;;;;;7377861;19;20021;-70
2024/01/21 12:38:28;;;;;;;21.67;11.65;;;4.50;1.00;;;;;;7378436;19;20045;-69
2024/01/21 12:40:59;;;;;;;17.80;10.65;;;4.60;1.00;;;;;;7378594;19;20002;-70
2024/01/21 12:43:32;;;;;;;18.30;11.05;;;4.40;1.00;;;;;;7378585;19;20021;-70
2024/01/21 12:46:03;;;;;;;14.80;10.25;;;4.60;1.00;;;;;;7378856;19;20034;-70
2024/01/21 12:48:33;;;;;;;14.52;10.70;;;4.70;1.00;;;;;;7379226;19;20097;-71
2024/01/21 12:51:03;;;;;;;18.02;10.68;;;4.90;1.00;;;;;;7377776;19;20011;-70
2024/01/21 12:53:33;;;;;;;25.45;11.23;;;4.70;1.00;;;;;;7376613;19;20002;-70
2024/01/21 12:56:04;;;;;;;21.92;10.90;;;4.70;1.00;;;;;;7377497;19;20024;-70
2024/01/21 12:58:37;;;;;;;17.00;10.60;;;4.70;1.00;;;;;;7376024;19;20090;-70